sensor_id;sensor_type;location;lat;lon;timestamp;P1;durP1;ratioP1;P2;durP2;ratioP2
20415;SDS011;10367;52.202;5.996;2022-08-06T00:02:37;15.13;;;13.63;;
20415;SDS011;10367;52.202;5.996;2022-08-06T00:05:07;17.83;;;14.20;;
20415;SDS011;10367;52.202;5.996;2022-08-06T00:07:49;13.37;;;12.07;;
20415;SDS011;10367;52.202;5.996;2022-08-06T00:10:19;17.70;;;14.13;;
20415;SDS011;10367;52.202;5.996;2022-08-06T00:12:56;12.50;;;11.27;;
20415;SDS011;10367;52.202;5.996;2022-08-06T00:15:27;14.10;;;12.80;;
20415;SDS011;10367;52.202;5.996;2022-08-06T00:18:18;15.53;;;12.50;;
20415;SDS011;10367;52.202;5.996;2022-08-06T00:20:49;15.73;;;12.30;;
20415;SDS011;10367;52.202;5.996;2022-08-06T00:23:19;12.23;;;11.30;;
20415;SDS011;10367;52.202;5.996;2022-08-06T00:25:50;14.07;;;11.53;;
20415;SDS011;10367;52.202;5.996;2022-08-06T00:28:20;12.77;;;11.53;;
20415;SDS011;10367;52.202;5.996;2022-08-06T00:30:58;12.47;;;11.17;;
20415;SDS011;10367;52.202;5.996;2022-08-06T00:33:38;15.50;;;14.03;;
20415;SDS011;10367;52.202;5.996;2022-08-06T00:36:22;16.23;;;13.37;;
20415;SDS011;10367;52.202;5.996;2022-08-06T00:38:55;13.73;;;11.40;;
20415;SDS011;10367;52.202;5.996;2022-08-06T00:41:25;13.07;;;11.80;;
20415;SDS011;10367;52.202;5.996;2022-08-06T00:44:11;13.27;;;12.17;;
20415;SDS011;10367;52.202;5.996;2022-08-06T00:46:40;14.23;;;12.83;;
20415;SDS011;10367;52.202;5.996;2022-08-06T00:49:12;13.53;;;11.93;;
20415;SDS011;10367;52.202;5.996;2022-08-06T00:52:01;13.17;;;11.50;;
20415;SDS011;10367;52.202;5.996;2022-08-06T00:54:29;16.47;;;13.23;;
20415;SDS011;10367;52.202;5.996;2022-08-06T00:57:02;15.03;;;12.47;;
20415;SDS011;10367;52.202;5.996;2022-08-06T00:59:37;14.67;;;13.10;;
20415;SDS011;10367;52.202;5.996;2022-08-06T01:02:09;13.70;;;12.20;;
20415;SDS011;10367;52.202;5.996;2022-08-06T01:04:42;13.23;;;11.97;;
20415;SDS011;10367;52.202;5.996;2022-08-06T01:07:11;12.77;;;11.57;;
20415;SDS011;10367;52.202;5.996;2022-08-06T01:09:41;15.13;;;13.17;;
20415;SDS011;10367;52.202;5.996;2022-08-06T01:12:24;12.43;;;11.23;;
20415;SDS011;10367;52.202;5.996;2022-08-06T01:15:01;13.00;;;11.80;;
20415;SDS011;10367;52.202;5.996;2022-08-06T01:17:43;18.40;;;12.50;;
20415;SDS011;10367;52.202;5.996;2022-08-06T01:20:27;14.03;;;11.77;;
20415;SDS011;10367;52.202;5.996;2022-08-06T01:23:38;12.27;;;11.07;;
20415;SDS011;10367;52.202;5.996;2022-08-06T01:26:21;13.73;;;12.27;;
20415;SDS011;10367;52.202;5.996;2022-08-06T01:29:02;12.57;;;11.43;;
20415;SDS011;10367;52.202;5.996;2022-08-06T01:31:41;15.47;;;13.20;;
20415;SDS011;10367;52.202;5.996;2022-08-06T01:34:20;14.40;;;11.93;;
20415;SDS011;10367;52.202;5.996;2022-08-06T01:36:59;15.90;;;11.90;;
20415;SDS011;10367;52.202;5.996;2022-08-06T01:39:35;16.40;;;13.07;;
20415;SDS011;10367;52.202;5.996;2022-08-06T01:42:26;12.30;;;11.03;;
20415;SDS011;10367;52.202;5.996;2022-08-06T01:45:03;12.93;;;11.60;;
20415;SDS011;10367;52.202;5.996;2022-08-06T01:47:37;19.93;;;13.67;;
20415;SDS011;10367;52.202;5.996;2022-08-06T01:50:20;17.33;;;13.90;;
20415;SDS011;10367;52.202;5.996;2022-08-06T01:52:54;13.07;;;11.87;;
20415;SDS011;10367;52.202;5.996;2022-08-06T01:55:27;18.30;;;13.70;;
20415;SDS011;10367;52.202;5.996;2022-08-06T01:58:21;12.93;;;11.83;;
20415;SDS011;10367;52.202;5.996;2022-08-06T02:00:58;12.53;;;11.17;;
20415;SDS011;10367;52.202;5.996;2022-08-06T02:03:30;13.47;;;12.07;;
20415;SDS011;10367;52.202;5.996;2022-08-06T02:06:19;14.97;;;13.40;;
20415;SDS011;10367;52.202;5.996;2022-08-06T02:08:56;13.47;;;12.07;;
20415;SDS011;10367;52.202;5.996;2022-08-06T02:11:49;16.70;;;13.57;;
20415;SDS011;10367;52.202;5.996;2022-08-06T02:14:33;17.03;;;13.50;;
20415;SDS011;10367;52.202;5.996;2022-08-06T02:17:11;12.73;;;11.47;;
20415;SDS011;10367;52.202;5.996;2022-08-06T02:19:52;13.17;;;11.97;;
20415;SDS011;10367;52.202;5.996;2022-08-06T02:22:38;13.50;;;12.20;;
20415;SDS011;10367;52.202;5.996;2022-08-06T02:25:09;13.97;;;12.03;;
20415;SDS011;10367;52.202;5.996;2022-08-06T02:27:49;14.30;;;12.03;;
20415;SDS011;10367;52.202;5.996;2022-08-06T02:30:27;13.70;;;12.17;;
20415;SDS011;10367;52.202;5.996;2022-08-06T02:33:04;15.77;;;12.33;;
20415;SDS011;10367;52.202;5.996;2022-08-06T02:35:38;14.00;;;12.57;;
20415;SDS011;10367;52.202;5.996;2022-08-06T02:38:11;13.57;;;12.27;;
20415;SDS011;10367;52.202;5.996;2022-08-06T02:40:55;12.43;;;11.33;;
20415;SDS011;10367;52.202;5.996;2022-08-06T02:43:30;14.63;;;12.43;;
20415;SDS011;10367;52.202;5.996;2022-08-06T02:46:03;13.03;;;11.73;;
20415;SDS011;10367;52.202;5.996;2022-08-06T02:48:40;13.10;;;11.97;;
20415;SDS011;10367;52.202;5.996;2022-08-06T02:51:14;13.83;;;12.30;;
20415;SDS011;10367;52.202;5.996;2022-08-06T02:54:10;15.17;;;12.93;;
20415;SDS011;10367;52.202;5.996;2022-08-06T02:56:44;13.43;;;12.10;;
20415;SDS011;10367;52.202;5.996;2022-08-06T02:59:15;13.23;;;11.97;;
20415;SDS011;10367;52.202;5.996;2022-08-06T03:01:47;13.40;;;12.17;;
20415;SDS011;10367;52.202;5.996;2022-08-06T03:04:21;14.43;;;12.43;;
20415;SDS011;10367;52.202;5.996;2022-08-06T03:07:00;13.57;;;12.27;;
20415;SDS011;10367;52.202;5.996;2022-08-06T03:09:53;13.47;;;12.17;;
20415;SDS011;10367;52.202;5.996;2022-08-06T03:12:23;13.03;;;11.83;;
20415;SDS011;10367;52.202;5.996;2022-08-06T03:14:57;13.73;;;12.40;;
20415;SDS011;10367;52.202;5.996;2022-08-06T03:17:37;14.80;;;13.07;;
20415;SDS011;10367;52.202;5.996;2022-08-06T03:20:14;14.23;;;12.60;;
20415;SDS011;10367;52.202;5.996;2022-08-06T03:22:52;12.07;;;10.87;;
20415;SDS011;10367;52.202;5.996;2022-08-06T03:25:24;14.30;;;11.87;;
20415;SDS011;10367;52.202;5.996;2022-08-06T03:27:57;11.53;;;10.63;;
20415;SDS011;10367;52.202;5.996;2022-08-06T03:30:28;13.07;;;11.63;;
20415;SDS011;10367;52.202;5.996;2022-08-06T03:33:00;12.63;;;11.53;;
20415;SDS011;10367;52.202;5.996;2022-08-06T03:35:53;12.23;;;10.83;;
20415;SDS011;10367;52.202;5.996;2022-08-06T03:38:26;12.53;;;11.33;;
20415;SDS011;10367;52.202;5.996;2022-08-06T03:41:02;13.57;;;12.20;;
20415;SDS011;10367;52.202;5.996;2022-08-06T03:43:34;12.57;;;11.30;;
20415;SDS011;10367;52.202;5.996;2022-08-06T03:46:24;12.63;;;11.33;;
20415;SDS011;10367;52.202;5.996;2022-08-06T03:48:58;12.80;;;11.57;;
20415;SDS011;10367;52.202;5.996;2022-08-06T03:51:34;13.10;;;11.60;;
20415;SDS011;10367;52.202;5.996;2022-08-06T03:54:21;18.47;;;13.23;;
20415;SDS011;10367;52.202;5.996;2022-08-06T03:57:00;14.23;;;11.97;;
20415;SDS011;10367;52.202;5.996;2022-08-06T03:59:37;15.93;;;13.37;;
20415;SDS011;10367;52.202;5.996;2022-08-06T04:02:24;13.03;;;11.67;;
20415;SDS011;10367;52.202;5.996;2022-08-06T04:05:11;13.30;;;11.77;;
20415;SDS011;10367;52.202;5.996;2022-08-06T04:07:43;13.83;;;12.43;;
20415;SDS011;10367;52.202;5.996;2022-08-06T04:10:23;14.00;;;12.27;;
20415;SDS011;10367;52.202;5.996;2022-08-06T04:13:02;12.87;;;11.53;;
20415;SDS011;10367;52.202;5.996;2022-08-06T04:15:54;12.23;;;11.17;;
20415;SDS011;10367;52.202;5.996;2022-08-06T04:18:24;12.83;;;11.50;;
20415;SDS011;10367;52.202;5.996;2022-08-06T04:20:57;13.63;;;11.67;;
20415;SDS011;10367;52.202;5.996;2022-08-06T04:23:49;16.83;;;12.07;;
20415;SDS011;10367;52.202;5.996;2022-08-06T04:26:21;13.50;;;12.20;;
20415;SDS011;10367;52.202;5.996;2022-08-06T04:28:55;13.73;;;11.57;;
20415;SDS011;10367;52.202;5.996;2022-08-06T04:31:26;12.30;;;11.30;;
20415;SDS011;10367;52.202;5.996;2022-08-06T04:34:18;12.80;;;11.53;;
20415;SDS011;10367;52.202;5.996;2022-08-06T04:36:54;14.30;;;12.43;;
20415;SDS011;10367;52.202;5.996;2022-08-06T04:39:29;13.73;;;11.37;;
20415;SDS011;10367;52.202;5.996;2022-08-06T04:42:13;23.87;;;15.27;;
20415;SDS011;10367;52.202;5.996;2022-08-06T04:44:44;13.80;;;12.37;;
20415;SDS011;10367;52.202;5.996;2022-08-06T04:47:26;17.47;;;12.40;;
20415;SDS011;10367;52.202;5.996;2022-08-06T04:50:13;13.60;;;12.13;;
20415;SDS011;10367;52.202;5.996;2022-08-06T04:52:48;16.33;;;11.90;;
20415;SDS011;10367;52.202;5.996;2022-08-06T04:55:20;13.20;;;12.00;;
20415;SDS011;10367;52.202;5.996;2022-08-06T04:57:59;13.97;;;12.50;;
20415;SDS011;10367;52.202;5.996;2022-08-06T05:00:41;13.17;;;11.90;;
20415;SDS011;10367;52.202;5.996;2022-08-06T05:03:29;12.57;;;11.33;;
20415;SDS011;10367;52.202;5.996;2022-08-06T05:06:19;12.87;;;11.63;;
20415;SDS011;10367;52.202;5.996;2022-08-06T05:08:55;12.40;;;11.20;;
20415;SDS011;10367;52.202;5.996;2022-08-06T05:11:32;16.97;;;12.67;;
20415;SDS011;10367;52.202;5.996;2022-08-06T05:14:27;13.43;;;11.70;;
20415;SDS011;10367;52.202;5.996;2022-08-06T05:17:01;14.07;;;12.47;;
20415;SDS011;10367;52.202;5.996;2022-08-06T05:19:35;16.10;;;11.80;;
20415;SDS011;10367;52.202;5.996;2022-08-06T05:22:09;14.60;;;12.57;;
20415;SDS011;10367;52.202;5.996;2022-08-06T05:25:01;14.83;;;12.10;;
20415;SDS011;10367;52.202;5.996;2022-08-06T05:27:43;13.63;;;11.87;;
20415;SDS011;10367;52.202;5.996;2022-08-06T05:30:32;12.63;;;11.47;;
20415;SDS011;10367;52.202;5.996;2022-08-06T05:33:01;13.87;;;12.50;;
20415;SDS011;10367;52.202;5.996;2022-08-06T05:35:33;13.20;;;11.73;;
20415;SDS011;10367;52.202;5.996;2022-08-06T05:38:07;15.17;;;12.37;;
20415;SDS011;10367;52.202;5.996;2022-08-06T05:40:38;20.57;;;14.43;;
20415;SDS011;10367;52.202;5.996;2022-08-06T05:43:24;13.27;;;12.00;;
20415;SDS011;10367;52.202;5.996;2022-08-06T05:46:15;14.53;;;13.03;;
20415;SDS011;10367;52.202;5.996;2022-08-06T05:48:54;11.87;;;10.80;;
20415;SDS011;10367;52.202;5.996;2022-08-06T05:51:41;19.43;;;13.40;;
20415;SDS011;10367;52.202;5.996;2022-08-06T05:54:20;12.30;;;11.30;;
20415;SDS011;10367;52.202;5.996;2022-08-06T05:57:00;12.77;;;11.60;;
20415;SDS011;10367;52.202;5.996;2022-08-06T05:59:33;13.00;;;11.83;;
20415;SDS011;10367;52.202;5.996;2022-08-06T06:02:25;12.60;;;11.40;;
20415;SDS011;10367;52.202;5.996;2022-08-06T06:04:57;13.97;;;11.23;;
20415;SDS011;10367;52.202;5.996;2022-08-06T06:07:48;13.57;;;12.27;;
20415;SDS011;10367;52.202;5.996;2022-08-06T06:10:39;13.20;;;12.03;;
20415;SDS011;10367;52.202;5.996;2022-08-06T06:13:19;12.70;;;11.50;;
20415;SDS011;10367;52.202;5.996;2022-08-06T06:16:14;13.50;;;12.13;;
20415;SDS011;10367;52.202;5.996;2022-08-06T06:19:06;11.57;;;10.67;;
20415;SDS011;10367;52.202;5.996;2022-08-06T06:21:46;13.57;;;12.30;;
20415;SDS011;10367;52.202;5.996;2022-08-06T06:24:26;12.07;;;11.00;;
20415;SDS011;10367;52.202;5.996;2022-08-06T06:27:00;13.70;;;12.30;;
20415;SDS011;10367;52.202;5.996;2022-08-06T06:30:00;12.17;;;11.17;;
20415;SDS011;10367;52.202;5.996;2022-08-06T06:32:41;14.33;;;12.60;;
20415;SDS011;10367;52.202;5.996;2022-08-06T06:35:20;13.77;;;12.10;;
20415;SDS011;10367;52.202;5.996;2022-08-06T06:38:04;12.43;;;11.53;;
20415;SDS011;10367;52.202;5.996;2022-08-06T06:40:46;14.17;;;12.73;;
20415;SDS011;10367;52.202;5.996;2022-08-06T06:43:43;17.83;;;12.73;;
20415;SDS011;10367;52.202;5.996;2022-08-06T06:46:21;14.03;;;12.57;;
20415;SDS011;10367;52.202;5.996;2022-08-06T06:49:10;13.33;;;12.30;;
20415;SDS011;10367;52.202;5.996;2022-08-06T06:52:03;16.27;;;12.80;;
20415;SDS011;10367;52.202;5.996;2022-08-06T06:54:38;13.03;;;11.73;;
20415;SDS011;10367;52.202;5.996;2022-08-06T06:57:15;14.13;;;12.83;;
20415;SDS011;10367;52.202;5.996;2022-08-06T06:59:50;13.87;;;12.47;;
20415;SDS011;10367;52.202;5.996;2022-08-06T07:02:41;14.90;;;13.10;;
20415;SDS011;10367;52.202;5.996;2022-08-06T07:05:16;14.53;;;13.03;;
20415;SDS011;10367;52.202;5.996;2022-08-06T07:08:06;15.43;;;13.33;;
20415;SDS011;10367;52.202;5.996;2022-08-06T07:10:38;13.80;;;12.60;;
20415;SDS011;10367;52.202;5.996;2022-08-06T07:13:10;13.70;;;12.40;;
20415;SDS011;10367;52.202;5.996;2022-08-06T07:15:42;15.53;;;13.97;;
20415;SDS011;10367;52.202;5.996;2022-08-06T07:18:20;13.30;;;12.07;;
20415;SDS011;10367;52.202;5.996;2022-08-06T07:21:02;13.27;;;12.03;;
20415;SDS011;10367;52.202;5.996;2022-08-06T07:23:31;13.20;;;12.10;;
20415;SDS011;10367;52.202;5.996;2022-08-06T07:26:21;14.07;;;12.73;;
20415;SDS011;10367;52.202;5.996;2022-08-06T07:28:51;14.37;;;13.33;;
20415;SDS011;10367;52.202;5.996;2022-08-06T07:31:29;13.77;;;12.73;;
20415;SDS011;10367;52.202;5.996;2022-08-06T07:34:02;13.67;;;12.53;;
20415;SDS011;10367;52.202;5.996;2022-08-06T07:36:39;14.10;;;12.63;;
20415;SDS011;10367;52.202;5.996;2022-08-06T07:39:24;13.97;;;12.77;;
20415;SDS011;10367;52.202;5.996;2022-08-06T07:42:00;14.90;;;13.70;;
20415;SDS011;10367;52.202;5.996;2022-08-06T07:44:39;15.10;;;13.57;;
20415;SDS011;10367;52.202;5.996;2022-08-06T07:47:25;14.83;;;13.63;;
20415;SDS011;10367;52.202;5.996;2022-08-06T07:50:13;17.40;;;15.57;;
20415;SDS011;10367;52.202;5.996;2022-08-06T07:52:44;16.10;;;14.63;;
20415;SDS011;10367;52.202;5.996;2022-08-06T07:55:13;17.97;;;16.10;;
20415;SDS011;10367;52.202;5.996;2022-08-06T07:57:44;17.23;;;15.57;;
20415;SDS011;10367;52.202;5.996;2022-08-06T08:00:24;16.63;;;15.23;;
20415;SDS011;10367;52.202;5.996;2022-08-06T08:02:55;15.00;;;14.00;;
20415;SDS011;10367;52.202;5.996;2022-08-06T08:06:01;16.23;;;14.63;;
20415;SDS011;10367;52.202;5.996;2022-08-06T08:08:52;16.67;;;15.47;;
20415;SDS011;10367;52.202;5.996;2022-08-06T08:11:23;14.73;;;13.77;;
20415;SDS011;10367;52.202;5.996;2022-08-06T08:14:13;15.10;;;14.07;;
20415;SDS011;10367;52.202;5.996;2022-08-06T08:16:45;15.73;;;14.63;;
20415;SDS011;10367;52.202;5.996;2022-08-06T08:19:25;16.33;;;15.07;;
20415;SDS011;10367;52.202;5.996;2022-08-06T08:22:02;17.47;;;15.93;;
20415;SDS011;10367;52.202;5.996;2022-08-06T08:24:35;16.23;;;14.77;;
20415;SDS011;10367;52.202;5.996;2022-08-06T08:27:04;16.57;;;15.40;;
20415;SDS011;10367;52.202;5.996;2022-08-06T08:29:49;18.73;;;17.23;;
20415;SDS011;10367;52.202;5.996;2022-08-06T08:32:23;17.73;;;16.13;;
20415;SDS011;10367;52.202;5.996;2022-08-06T08:34:52;18.80;;;16.70;;
20415;SDS011;10367;52.202;5.996;2022-08-06T08:37:23;16.10;;;15.00;;
20415;SDS011;10367;52.202;5.996;2022-08-06T08:39:59;16.43;;;15.27;;
20415;SDS011;10367;52.202;5.996;2022-08-06T08:42:30;16.87;;;15.40;;
20415;SDS011;10367;52.202;5.996;2022-08-06T08:45:06;16.57;;;15.30;;
20415;SDS011;10367;52.202;5.996;2022-08-06T08:47:43;18.13;;;16.63;;
20415;SDS011;10367;52.202;5.996;2022-08-06T08:50:25;16.43;;;15.10;;
20415;SDS011;10367;52.202;5.996;2022-08-06T08:52:58;17.93;;;16.50;;
20415;SDS011;10367;52.202;5.996;2022-08-06T08:55:32;16.70;;;15.57;;
20415;SDS011;10367;52.202;5.996;2022-08-06T08:58:21;16.50;;;15.40;;
20415;SDS011;10367;52.202;5.996;2022-08-06T09:01:10;17.07;;;15.37;;
20415;SDS011;10367;52.202;5.996;2022-08-06T09:04:01;16.43;;;15.17;;
20415;SDS011;10367;52.202;5.996;2022-08-06T09:06:32;17.20;;;15.80;;
20415;SDS011;10367;52.202;5.996;2022-08-06T09:09:05;16.77;;;15.40;;
20415;SDS011;10367;52.202;5.996;2022-08-06T09:11:43;19.60;;;17.03;;
20415;SDS011;10367;52.202;5.996;2022-08-06T09:14:33;19.03;;;17.20;;
20415;SDS011;10367;52.202;5.996;2022-08-06T09:17:03;18.10;;;16.70;;
20415;SDS011;10367;52.202;5.996;2022-08-06T09:19:38;17.97;;;16.60;;
20415;SDS011;10367;52.202;5.996;2022-08-06T09:22:07;18.10;;;16.60;;
20415;SDS011;10367;52.202;5.996;2022-08-06T09:24:38;18.43;;;17.13;;
20415;SDS011;10367;52.202;5.996;2022-08-06T09:27:09;17.90;;;16.63;;
20415;SDS011;10367;52.202;5.996;2022-08-06T09:30:00;17.57;;;16.50;;
20415;SDS011;10367;52.202;5.996;2022-08-06T09:32:52;19.67;;;18.27;;
20415;SDS011;10367;52.202;5.996;2022-08-06T09:35:30;19.53;;;18.00;;
20415;SDS011;10367;52.202;5.996;2022-08-06T09:38:11;19.57;;;17.97;;
20415;SDS011;10367;52.202;5.996;2022-08-06T09:43:52;19.97;;;18.33;;
20415;SDS011;10367;52.202;5.996;2022-08-06T09:46:37;17.90;;;16.73;;
20415;SDS011;10367;52.202;5.996;2022-08-06T09:49:10;18.37;;;17.07;;
20415;SDS011;10367;52.202;5.996;2022-08-06T09:52:09;17.97;;;16.83;;
20415;SDS011;10367;52.202;5.996;2022-08-06T09:54:43;19.40;;;18.00;;
20415;SDS011;10367;52.202;5.996;2022-08-06T09:57:20;18.00;;;16.93;;
20415;SDS011;10367;52.202;5.996;2022-08-06T10:00:02;20.23;;;18.80;;
20415;SDS011;10367;52.202;5.996;2022-08-06T10:02:40;20.67;;;19.13;;
20415;SDS011;10367;52.202;5.996;2022-08-06T10:05:17;19.23;;;18.03;;
20415;SDS011;10367;52.202;5.996;2022-08-06T10:08:02;19.73;;;18.20;;
20415;SDS011;10367;52.202;5.996;2022-08-06T10:10:40;20.10;;;18.80;;
20415;SDS011;10367;52.202;5.996;2022-08-06T10:13:13;20.73;;;18.97;;
20415;SDS011;10367;52.202;5.996;2022-08-06T10:15:47;21.43;;;19.67;;
20415;SDS011;10367;52.202;5.996;2022-08-06T10:18:34;20.13;;;18.43;;
20415;SDS011;10367;52.202;5.996;2022-08-06T10:21:23;20.03;;;18.40;;
20415;SDS011;10367;52.202;5.996;2022-08-06T10:24:08;20.67;;;19.07;;
20415;SDS011;10367;52.202;5.996;2022-08-06T10:26:38;20.50;;;18.90;;
20415;SDS011;10367;52.202;5.996;2022-08-06T10:29:10;19.10;;;17.73;;
20415;SDS011;10367;52.202;5.996;2022-08-06T10:31:42;21.37;;;19.57;;
20415;SDS011;10367;52.202;5.996;2022-08-06T10:34:20;19.53;;;17.97;;
20415;SDS011;10367;52.202;5.996;2022-08-06T10:36:59;20.50;;;18.73;;
20415;SDS011;10367;52.202;5.996;2022-08-06T10:39:51;19.83;;;18.30;;
20415;SDS011;10367;52.202;5.996;2022-08-06T10:42:36;20.10;;;18.60;;
20415;SDS011;10367;52.202;5.996;2022-08-06T10:45:08;19.60;;;18.13;;
20415;SDS011;10367;52.202;5.996;2022-08-06T10:47:44;20.13;;;18.53;;
20415;SDS011;10367;52.202;5.996;2022-08-06T10:50:35;21.63;;;19.80;;
20415;SDS011;10367;52.202;5.996;2022-08-06T10:53:20;19.23;;;17.97;;
20415;SDS011;10367;52.202;5.996;2022-08-06T10:56:11;22.33;;;20.23;;
20415;SDS011;10367;52.202;5.996;2022-08-06T10:58:47;22.77;;;20.67;;
20415;SDS011;10367;52.202;5.996;2022-08-06T11:01:18;21.93;;;20.07;;
20415;SDS011;10367;52.202;5.996;2022-08-06T11:04:16;19.17;;;17.87;;
20415;SDS011;10367;52.202;5.996;2022-08-06T11:06:56;19.97;;;18.60;;
20415;SDS011;10367;52.202;5.996;2022-08-06T11:10:06;19.70;;;18.40;;
20415;SDS011;10367;52.202;5.996;2022-08-06T11:12:56;19.30;;;18.00;;
20415;SDS011;10367;52.202;5.996;2022-08-06T11:15:34;19.47;;;18.10;;
20415;SDS011;10367;52.202;5.996;2022-08-06T11:18:04;20.07;;;18.87;;
20415;SDS011;10367;52.202;5.996;2022-08-06T11:20:40;19.97;;;18.60;;
20415;SDS011;10367;52.202;5.996;2022-08-06T11:26:33;19.63;;;18.53;;
20415;SDS011;10367;52.202;5.996;2022-08-06T11:29:10;21.00;;;19.57;;
20415;SDS011;10367;52.202;5.996;2022-08-06T11:31:42;20.43;;;18.97;;
20415;SDS011;10367;52.202;5.996;2022-08-06T11:34:39;20.00;;;18.80;;
20415;SDS011;10367;52.202;5.996;2022-08-06T11:46:33;20.83;;;19.50;;
20415;SDS011;10367;52.202;5.996;2022-08-06T11:49:20;20.70;;;19.37;;
20415;SDS011;10367;52.202;5.996;2022-08-06T11:51:52;21.27;;;19.77;;
20415;SDS011;10367;52.202;5.996;2022-08-06T11:54:34;21.10;;;19.70;;
20415;SDS011;10367;52.202;5.996;2022-08-06T11:57:17;20.57;;;19.17;;
20415;SDS011;10367;52.202;5.996;2022-08-06T12:00:14;20.87;;;19.37;;
20415;SDS011;10367;52.202;5.996;2022-08-06T12:02:52;20.43;;;18.93;;
20415;SDS011;10367;52.202;5.996;2022-08-06T12:08:26;20.67;;;19.13;;
20415;SDS011;10367;52.202;5.996;2022-08-06T12:11:24;20.67;;;19.23;;
20415;SDS011;10367;52.202;5.996;2022-08-06T12:14:04;19.67;;;18.27;;
20415;SDS011;10367;52.202;5.996;2022-08-06T12:17:08;20.40;;;18.97;;
20415;SDS011;10367;52.202;5.996;2022-08-06T12:19:44;22.03;;;20.37;;
20415;SDS011;10367;52.202;5.996;2022-08-06T12:22:29;20.30;;;18.93;;
20415;SDS011;10367;52.202;5.996;2022-08-06T12:24:59;21.87;;;20.30;;
20415;SDS011;10367;52.202;5.996;2022-08-06T12:27:40;21.67;;;20.20;;
20415;SDS011;10367;52.202;5.996;2022-08-06T12:30:20;24.03;;;22.00;;
20415;SDS011;10367;52.202;5.996;2022-08-06T12:33:04;21.03;;;19.73;;
20415;SDS011;10367;52.202;5.996;2022-08-06T12:35:48;21.87;;;20.43;;
20415;SDS011;10367;52.202;5.996;2022-08-06T12:38:19;20.20;;;19.00;;
20415;SDS011;10367;52.202;5.996;2022-08-06T12:40:51;22.40;;;20.80;;
20415;SDS011;10367;52.202;5.996;2022-08-06T12:43:24;20.20;;;19.00;;
20415;SDS011;10367;52.202;5.996;2022-08-06T12:46:13;20.80;;;19.47;;
20415;SDS011;10367;52.202;5.996;2022-08-06T12:48:47;21.00;;;19.50;;
20415;SDS011;10367;52.202;5.996;2022-08-06T12:51:18;19.67;;;18.47;;
20415;SDS011;10367;52.202;5.996;2022-08-06T12:53:54;21.83;;;20.23;;
20415;SDS011;10367;52.202;5.996;2022-08-06T12:56:26;20.73;;;19.53;;
20415;SDS011;10367;52.202;5.996;2022-08-06T12:59:05;23.10;;;21.50;;
20415;SDS011;10367;52.202;5.996;2022-08-06T13:01:50;24.27;;;22.33;;
20415;SDS011;10367;52.202;5.996;2022-08-06T13:04:37;21.47;;;20.07;;
20415;SDS011;10367;52.202;5.996;2022-08-06T13:07:11;20.77;;;19.47;;
20415;SDS011;10367;52.202;5.996;2022-08-06T13:09:41;22.70;;;21.17;;
20415;SDS011;10367;52.202;5.996;2022-08-06T13:12:32;22.13;;;20.43;;
20415;SDS011;10367;52.202;5.996;2022-08-06T13:15:22;20.93;;;19.60;;
20415;SDS011;10367;52.202;5.996;2022-08-06T13:18:09;25.47;;;22.97;;
20415;SDS011;10367;52.202;5.996;2022-08-06T13:20:59;21.57;;;20.13;;
20415;SDS011;10367;52.202;5.996;2022-08-06T13:23:32;21.47;;;20.07;;
20415;SDS011;10367;52.202;5.996;2022-08-06T13:26:10;21.80;;;20.30;;
20415;SDS011;10367;52.202;5.996;2022-08-06T13:29:02;22.20;;;20.70;;
20415;SDS011;10367;52.202;5.996;2022-08-06T13:32:01;23.03;;;21.50;;
20415;SDS011;10367;52.202;5.996;2022-08-06T13:34:52;21.67;;;20.17;;
20415;SDS011;10367;52.202;5.996;2022-08-06T13:40:35;21.00;;;19.43;;
20415;SDS011;10367;52.202;5.996;2022-08-06T13:43:17;21.50;;;20.13;;
20415;SDS011;10367;52.202;5.996;2022-08-06T13:46:07;21.37;;;19.93;;
20415;SDS011;10367;52.202;5.996;2022-08-06T13:48:45;21.73;;;20.33;;
20415;SDS011;10367;52.202;5.996;2022-08-06T13:51:15;19.73;;;18.63;;
20415;SDS011;10367;52.202;5.996;2022-08-06T13:53:54;22.60;;;20.97;;
20415;SDS011;10367;52.202;5.996;2022-08-06T13:56:25;20.50;;;19.20;;
20415;SDS011;10367;52.202;5.996;2022-08-06T13:58:57;21.20;;;19.70;;
20415;SDS011;10367;52.202;5.996;2022-08-06T14:01:27;18.90;;;17.83;;
20415;SDS011;10367;52.202;5.996;2022-08-06T14:04:13;20.10;;;18.73;;
20415;SDS011;10367;52.202;5.996;2022-08-06T14:06:45;20.13;;;18.93;;
20415;SDS011;10367;52.202;5.996;2022-08-06T14:09:17;21.23;;;19.63;;
20415;SDS011;10367;52.202;5.996;2022-08-06T14:11:49;20.60;;;19.20;;
20415;SDS011;10367;52.202;5.996;2022-08-06T14:14:20;21.23;;;19.50;;
20415;SDS011;10367;52.202;5.996;2022-08-06T14:16:51;20.60;;;19.20;;
20415;SDS011;10367;52.202;5.996;2022-08-06T14:19:23;19.53;;;18.43;;
20415;SDS011;10367;52.202;5.996;2022-08-06T14:22:12;20.30;;;18.77;;
20415;SDS011;10367;52.202;5.996;2022-08-06T14:24:42;21.43;;;19.97;;
20415;SDS011;10367;52.202;5.996;2022-08-06T14:27:19;20.30;;;18.93;;
20415;SDS011;10367;52.202;5.996;2022-08-06T14:29:50;21.33;;;19.90;;
20415;SDS011;10367;52.202;5.996;2022-08-06T14:32:39;20.70;;;19.40;;
20415;SDS011;10367;52.202;5.996;2022-08-06T14:35:16;21.43;;;19.83;;
20415;SDS011;10367;52.202;5.996;2022-08-06T14:37:45;20.30;;;19.07;;
20415;SDS011;10367;52.202;5.996;2022-08-06T14:40:21;21.50;;;20.03;;
20415;SDS011;10367;52.202;5.996;2022-08-06T14:43:25;21.17;;;19.87;;
20415;SDS011;10367;52.202;5.996;2022-08-06T14:46:24;19.47;;;18.37;;
20415;SDS011;10367;52.202;5.996;2022-08-06T14:48:56;21.53;;;19.63;;
20415;SDS011;10367;52.202;5.996;2022-08-06T14:51:36;22.33;;;20.50;;
20415;SDS011;10367;52.202;5.996;2022-08-06T14:54:25;20.23;;;19.03;;
20415;SDS011;10367;52.202;5.996;2022-08-06T14:56:58;21.90;;;20.43;;
20415;SDS011;10367;52.202;5.996;2022-08-06T14:59:42;19.33;;;18.13;;
20415;SDS011;10367;52.202;5.996;2022-08-06T15:02:18;21.37;;;19.97;;
20415;SDS011;10367;52.202;5.996;2022-08-06T15:04:51;20.10;;;18.70;;
20415;SDS011;10367;52.202;5.996;2022-08-06T15:07:21;19.70;;;18.47;;
20415;SDS011;10367;52.202;5.996;2022-08-06T15:09:52;22.87;;;21.17;;
20415;SDS011;10367;52.202;5.996;2022-08-06T15:12:41;20.63;;;19.10;;
20415;SDS011;10367;52.202;5.996;2022-08-06T15:15:17;21.03;;;19.53;;
20415;SDS011;10367;52.202;5.996;2022-08-06T15:18:01;21.07;;;19.23;;
20415;SDS011;10367;52.202;5.996;2022-08-06T15:20:50;19.57;;;18.27;;
20415;SDS011;10367;52.202;5.996;2022-08-06T15:23:21;19.93;;;18.60;;
20415;SDS011;10367;52.202;5.996;2022-08-06T15:26:10;22.27;;;20.47;;
20415;SDS011;10367;52.202;5.996;2022-08-06T15:28:59;22.40;;;20.63;;
20415;SDS011;10367;52.202;5.996;2022-08-06T15:31:36;21.03;;;19.53;;
20415;SDS011;10367;52.202;5.996;2022-08-06T15:34:06;22.13;;;20.53;;
20415;SDS011;10367;52.202;5.996;2022-08-06T15:36:39;20.63;;;19.17;;
20415;SDS011;10367;52.202;5.996;2022-08-06T15:39:29;20.93;;;19.50;;
20415;SDS011;10367;52.202;5.996;2022-08-06T15:42:19;19.80;;;18.40;;
20415;SDS011;10367;52.202;5.996;2022-08-06T15:44:50;23.27;;;21.17;;
20415;SDS011;10367;52.202;5.996;2022-08-06T15:47:19;19.83;;;18.53;;
20415;SDS011;10367;52.202;5.996;2022-08-06T15:49:58;20.33;;;18.90;;
20415;SDS011;10367;52.202;5.996;2022-08-06T15:52:31;21.80;;;20.17;;
20415;SDS011;10367;52.202;5.996;2022-08-06T15:55:11;21.60;;;20.07;;